createdAt,value
2023-07-03T00:01:36.074Z,10.75
2023-07-03T00:04:06.456Z,11.27
2023-07-03T00:06:37.945Z,11.52
2023-07-03T00:09:07.564Z,10.38
2023-07-03T00:11:35.878Z,12.52
2023-07-03T00:14:04.604Z,14.30
2023-07-03T00:16:33.006Z,10.48
2023-07-03T00:19:01.680Z,9.90
2023-07-03T00:21:31.431Z,9.27
2023-07-03T00:24:00.030Z,10.15
2023-07-03T00:26:28.387Z,13.48
2023-07-03T00:28:57.085Z,10.10
2023-07-03T00:31:25.545Z,13.38
2023-07-03T00:33:54.159Z,13.82
2023-07-03T00:36:22.540Z,12.98
2023-07-03T00:38:58.218Z,10.13
2023-07-03T00:41:27.525Z,12.15
2023-07-03T00:43:56.050Z,12.50
2023-07-03T00:46:26.198Z,13.00
2023-07-03T00:48:55.011Z,13.10
2023-07-03T00:51:23.502Z,11.05
2023-07-03T00:53:53.783Z,11.98
2023-07-03T00:56:22.171Z,12.75
2023-07-03T00:58:51.487Z,10.88
2023-07-03T01:01:26.808Z,12.55
2023-07-03T01:04:02.054Z,11.43
2023-07-03T01:06:37.388Z,12.38
2023-07-03T01:09:08.910Z,10.38
2023-07-03T01:11:38.376Z,13.43
2023-07-03T01:14:11.534Z,14.93
2023-07-03T01:16:40.385Z,11.65
2023-07-03T01:19:14.800Z,10.02
2023-07-03T01:21:49.557Z,12.18
2023-07-03T01:24:32.535Z,13.70
2023-07-03T01:27:04.859Z,11.50
2023-07-03T01:29:36.118Z,13.80
2023-07-03T01:32:08.245Z,14.80
2023-07-03T01:34:38.775Z,10.55
2023-07-03T01:37:08.625Z,13.70
2023-07-03T01:39:39.488Z,12.10
2023-07-03T01:42:09.923Z,12.40
2023-07-03T01:44:38.697Z,11.30
2023-07-03T01:47:10.047Z,11.50
2023-07-03T01:49:39.428Z,13.05
2023-07-03T01:52:14.111Z,11.38
2023-07-03T01:54:51.781Z,14.90
2023-07-03T01:57:27.416Z,10.85
2023-07-03T01:59:56.588Z,11.93
2023-07-03T02:02:31.340Z,10.05
2023-07-03T02:05:07.321Z,12.98
2023-07-03T02:07:37.448Z,9.82
2023-07-03T02:10:08.453Z,10.20
2023-07-03T02:12:37.042Z,13.10
2023-07-03T02:15:07.563Z,11.38
2023-07-03T02:17:36.097Z,13.77
2023-07-03T02:20:05.955Z,13.27
2023-07-03T02:22:34.289Z,13.13
2023-07-03T02:25:02.976Z,15.90
2023-07-03T02:27:32.890Z,9.88
2023-07-03T02:30:04.142Z,11.80
2023-07-03T02:32:36.347Z,10.57
2023-07-03T02:35:07.973Z,14.52
2023-07-03T02:37:36.472Z,9.90
2023-07-03T02:40:06.940Z,11.52
2023-07-03T02:42:36.752Z,12.52
2023-07-03T02:45:07.727Z,10.75
2023-07-03T02:47:37.752Z,14.63
2023-07-03T02:50:09.671Z,11.65
2023-07-03T02:52:39.412Z,10.43
2023-07-03T02:55:11.526Z,11.60
2023-07-03T02:57:41.942Z,14.63
2023-07-03T03:00:12.946Z,14.07
2023-07-03T03:02:41.619Z,11.75
2023-07-03T03:05:10.846Z,13.48
2023-07-03T03:07:40.329Z,11.00
2023-07-03T03:10:10.399Z,14.73
2023-07-03T03:12:38.781Z,12.55
2023-07-03T03:15:10.169Z,16.20
2023-07-03T03:17:38.704Z,12.00
2023-07-03T03:20:09.562Z,13.10
2023-07-03T03:22:37.908Z,13.52
2023-07-03T03:25:07.249Z,9.32
2023-07-03T03:27:35.816Z,16.63
2023-07-03T03:30:05.095Z,17.33
2023-07-03T03:32:38.388Z,14.88
2023-07-03T03:35:08.413Z,10.10
2023-07-03T03:37:36.751Z,13.07
2023-07-03T03:40:08.988Z,12.23
2023-07-03T03:42:38.752Z,16.45
2023-07-03T03:45:08.408Z,14.75
2023-07-03T03:47:38.482Z,17.80
2023-07-03T03:50:08.700Z,13.00
2023-07-03T03:52:41.430Z,14.60
2023-07-03T03:55:10.476Z,14.45
2023-07-03T03:57:39.075Z,12.05
2023-07-03T04:00:14.137Z,11.10
2023-07-03T04:02:46.459Z,12.25
2023-07-03T04:05:15.441Z,13.40
2023-07-03T04:07:45.065Z,11.98
2023-07-03T04:10:13.741Z,14.13
2023-07-03T04:12:42.145Z,12.50
2023-07-03T04:15:11.092Z,13.60
2023-07-03T04:17:39.646Z,13.77
2023-07-03T04:20:14.807Z,13.00
2023-07-03T04:22:43.319Z,12.85
2023-07-03T04:25:12.194Z,15.32
2023-07-03T04:27:40.833Z,13.32
2023-07-03T04:30:10.555Z,14.20
2023-07-03T04:32:39.453Z,14.98
2023-07-03T04:35:10.463Z,9.73
2023-07-03T04:37:38.835Z,10.98
2023-07-03T04:40:09.806Z,12.20
2023-07-03T04:42:38.217Z,15.77
2023-07-03T04:45:09.172Z,12.68
2023-07-03T04:47:38.981Z,14.18
2023-07-03T04:50:11.179Z,13.05
2023-07-03T04:52:40.266Z,12.57
2023-07-03T04:55:10.585Z,13.48
2023-07-03T04:57:40.134Z,15.00
2023-07-03T05:00:16.319Z,19.70
2023-07-03T05:02:45.704Z,18.80
2023-07-03T05:05:17.559Z,11.23
2023-07-03T05:07:47.229Z,12.55
2023-07-03T05:10:17.469Z,12.77
2023-07-03T05:12:46.417Z,14.43
2023-07-03T05:15:17.423Z,11.10
2023-07-03T05:17:50.941Z,13.52
2023-07-03T05:20:23.212Z,14.95
2023-07-03T05:22:52.046Z,13.43
2023-07-03T05:25:21.301Z,10.75
2023-07-03T05:27:50.336Z,13.95
2023-07-03T05:30:19.195Z,12.13
2023-07-03T05:32:47.970Z,12.35
2023-07-03T05:35:16.794Z,12.18
2023-07-03T05:37:46.542Z,11.45
2023-07-03T05:40:16.593Z,12.52
2023-07-03T05:42:45.318Z,16.83
2023-07-03T05:45:14.026Z,11.90
2023-07-03T05:47:42.985Z,10.98
2023-07-03T05:50:12.149Z,10.90
2023-07-03T05:52:41.884Z,10.63
2023-07-03T05:55:12.352Z,12.20
2023-07-03T05:57:40.790Z,12.63
2023-07-03T06:00:14.684Z,13.60
2023-07-03T06:02:48.900Z,11.23
2023-07-03T06:05:18.009Z,14.30
2023-07-03T06:07:46.496Z,11.65
2023-07-03T06:10:16.752Z,10.25
2023-07-03T06:12:45.732Z,9.63
2023-07-03T06:15:14.564Z,9.02
2023-07-03T06:17:43.565Z,8.73
2023-07-03T06:20:12.772Z,11.52
2023-07-03T06:22:41.981Z,11.57
2023-07-03T06:25:11.437Z,8.70
2023-07-03T06:27:41.570Z,13.57
2023-07-03T06:30:10.870Z,10.30
2023-07-03T06:32:39.822Z,9.85
2023-07-03T06:35:09.317Z,11.98
2023-07-03T06:37:40.603Z,11.32
2023-07-03T06:40:11.440Z,10.88
2023-07-03T06:42:41.910Z,8.65
2023-07-03T06:45:17.421Z,10.32
2023-07-03T06:47:45.949Z,10.52
2023-07-03T06:50:14.585Z,9.05
2023-07-03T06:52:44.075Z,12.38
2023-07-03T06:55:12.686Z,10.77
2023-07-03T06:57:42.628Z,11.57
2023-07-03T07:00:12.255Z,10.50
2023-07-03T07:02:40.667Z,10.45
2023-07-03T07:05:10.229Z,12.20
2023-07-03T07:07:38.598Z,10.30
2023-07-03T07:10:08.129Z,12.50
2023-07-03T07:12:36.456Z,13.60
2023-07-03T07:15:07.646Z,13.18
2023-07-03T07:20:11.466Z,14.25
2023-07-03T07:22:39.742Z,9.85
2023-07-03T07:25:09.426Z,12.32
2023-07-03T07:27:37.678Z,12.88
2023-07-03T07:30:09.757Z,12.23
2023-07-03T07:32:38.217Z,13.52
2023-07-03T07:35:10.401Z,11.13
2023-07-03T07:37:38.815Z,15.82
2023-07-03T07:40:08.913Z,13.50
2023-07-03T07:42:37.603Z,12.63
2023-07-03T07:45:08.776Z,11.98
2023-07-03T07:47:37.329Z,10.80
2023-07-03T07:50:07.137Z,11.60
2023-07-03T07:52:35.497Z,12.18
2023-07-03T07:55:04.618Z,12.32
2023-07-03T07:57:33.022Z,12.15
2023-07-03T08:00:01.749Z,17.20
2023-07-03T08:02:41.771Z,15.45
2023-07-03T08:05:11.200Z,15.18
2023-07-03T08:07:40.197Z,13.73
2023-07-03T08:10:11.865Z,11.13
2023-07-03T08:15:10.040Z,12.88
2023-07-03T08:17:38.754Z,12.63
2023-07-03T08:20:12.683Z,12.65
2023-07-03T08:22:41.295Z,14.32
2023-07-03T08:25:11.166Z,13.00
2023-07-03T08:27:39.495Z,13.55
2023-07-03T08:30:09.200Z,13.00
2023-07-03T08:32:37.783Z,12.48
2023-07-03T08:37:40.349Z,11.40
2023-07-03T08:40:11.280Z,12.75
2023-07-03T08:42:47.130Z,13.48
2023-07-03T08:45:18.980Z,10.07
2023-07-03T08:47:50.961Z,11.10
2023-07-03T08:50:35.806Z,15.45
2023-07-03T08:53:07.922Z,11.80
2023-07-03T08:55:42.477Z,13.63
2023-07-03T08:58:11.389Z,11.75
2023-07-03T09:00:44.874Z,15.73
2023-07-03T09:03:21.719Z,13.57
2023-07-03T09:06:05.313Z,17.00
2023-07-03T09:08:43.576Z,14.93
2023-07-03T09:11:12.657Z,15.68
2023-07-03T09:13:47.660Z,13.93
2023-07-03T09:16:20.970Z,13.88
2023-07-03T09:18:53.583Z,13.23
2023-07-03T09:21:26.480Z,16.33
2023-07-03T09:24:01.251Z,14.65
2023-07-03T09:26:35.558Z,16.27
2023-07-03T09:29:07.728Z,15.18
2023-07-03T09:31:36.529Z,15.20
2023-07-03T09:34:05.494Z,14.23
2023-07-03T09:36:36.993Z,16.40
2023-07-03T09:39:12.170Z,13.80
2023-07-03T09:41:42.110Z,19.83
2023-07-03T09:44:14.279Z,14.25
2023-07-03T09:46:43.980Z,13.68
2023-07-03T09:49:17.419Z,19.70
2023-07-03T09:51:52.183Z,20.33
2023-07-03T09:54:23.756Z,13.45
2023-07-03T09:56:52.394Z,15.68
2023-07-03T09:59:21.684Z,17.45
2023-07-03T10:07:09.990Z,17.42
2023-07-03T10:12:24.666Z,17.77
2023-07-03T10:14:58.608Z,19.55
2023-07-03T10:17:33.905Z,19.95
2023-07-03T10:20:09.320Z,20.35
2023-07-03T10:22:41.547Z,15.38
2023-07-03T10:25:27.902Z,15.00
2023-07-03T10:28:00.466Z,18.52
2023-07-03T10:30:35.164Z,16.60
2023-07-03T10:33:08.049Z,17.98
2023-07-03T10:35:37.249Z,15.85
2023-07-03T10:38:20.042Z,18.08
2023-07-03T10:40:57.853Z,17.92
2023-07-03T10:43:30.770Z,20.42
2023-07-03T10:46:01.378Z,21.17
2023-07-03T10:48:34.444Z,18.42
2023-07-03T10:51:15.117Z,17.55
2023-07-03T10:53:49.612Z,17.58
2023-07-03T10:56:24.199Z,18.52
2023-07-03T10:59:03.421Z,22.27
2023-07-03T11:01:40.256Z,15.65
2023-07-03T11:04:25.377Z,17.52
2023-07-03T11:07:05.014Z,13.63
2023-07-03T11:09:45.282Z,17.40
2023-07-03T11:12:23.620Z,16.13
2023-07-03T11:15:01.575Z,15.10
2023-07-03T11:23:16.352Z,16.67
2023-07-03T11:28:32.034Z,16.35
2023-07-03T11:31:03.487Z,17.30
2023-07-03T11:36:06.946Z,13.95
2023-07-03T11:43:50.285Z,18.73
2023-07-03T11:46:24.710Z,17.17
2023-07-03T11:48:58.513Z,17.42
2023-07-03T11:51:36.483Z,16.23
2023-07-03T11:54:21.594Z,17.73
2023-07-03T11:56:57.790Z,17.48
2023-07-03T11:59:32.890Z,15.73
2023-07-03T12:02:44.653Z,17.27
2023-07-03T12:05:28.472Z,17.20
2023-07-03T12:07:57.589Z,18.95
2023-07-03T12:10:57.238Z,15.20
2023-07-03T12:13:37.229Z,16.15
2023-07-03T12:16:10.265Z,17.38
2023-07-03T12:18:39.079Z,17.98
2023-07-03T12:21:08.327Z,16.58
2023-07-03T12:23:39.460Z,14.40
2023-07-03T12:26:10.477Z,18.52
2023-07-03T12:28:42.228Z,14.48
2023-07-03T12:31:15.698Z,13.52
2023-07-03T12:33:52.602Z,14.32
2023-07-03T12:36:25.608Z,18.05
2023-07-03T12:38:54.724Z,13.73
2023-07-03T12:41:30.144Z,15.27
2023-07-03T12:44:08.117Z,16.85
2023-07-03T12:46:39.695Z,14.90
2023-07-03T12:49:11.499Z,18.10
2023-07-03T12:51:45.198Z,18.05
2023-07-03T12:54:14.914Z,17.70
2023-07-03T12:56:45.130Z,19.35
2023-07-03T12:59:19.163Z,13.80
2023-07-03T13:01:50.825Z,16.00
2023-07-03T13:04:28.569Z,15.10
2023-07-03T13:06:59.644Z,15.38
2023-07-03T13:09:30.310Z,19.20
2023-07-03T13:11:58.802Z,15.65
2023-07-03T13:14:30.443Z,14.25
2023-07-03T13:17:01.950Z,11.85
2023-07-03T13:19:35.322Z,12.32
2023-07-03T13:22:08.284Z,13.60
2023-07-03T13:24:45.030Z,13.88
2023-07-03T13:27:21.626Z,18.20
2023-07-03T13:29:58.771Z,12.38
2023-07-03T13:32:27.430Z,12.10
2023-07-03T13:34:59.044Z,12.35
2023-07-03T13:37:29.826Z,10.23
2023-07-03T13:40:01.845Z,9.15
2023-07-03T13:42:31.276Z,8.45
2023-07-03T13:45:01.299Z,7.60
2023-07-03T13:47:30.264Z,10.10
2023-07-03T13:49:59.092Z,13.52
2023-07-03T13:52:27.635Z,9.90
2023-07-03T13:54:56.205Z,8.45
2023-07-03T13:57:24.721Z,9.38
2023-07-03T13:59:53.358Z,9.05
2023-07-03T14:02:34.760Z,8.93
2023-07-03T14:05:12.351Z,7.95
2023-07-03T14:07:40.696Z,14.65
2023-07-03T14:10:10.235Z,13.57
2023-07-03T14:12:38.578Z,10.25
2023-07-03T14:15:15.875Z,9.77
2023-07-03T14:17:45.758Z,9.50
2023-07-03T14:20:14.950Z,11.73
2023-07-03T14:22:43.687Z,9.70
2023-07-03T14:25:15.474Z,11.18
2023-07-03T14:27:43.919Z,9.80
2023-07-03T14:30:13.945Z,9.93
2023-07-03T14:32:54.698Z,8.55
2023-07-03T14:35:26.424Z,7.50
2023-07-03T14:37:54.892Z,10.35
2023-07-03T14:40:23.704Z,17.35
2023-07-03T14:42:52.171Z,10.00
2023-07-03T14:45:20.943Z,12.90
2023-07-03T14:47:49.424Z,9.52
2023-07-03T14:50:18.055Z,8.48
2023-07-03T14:52:49.622Z,8.75
2023-07-03T14:55:19.723Z,7.88
2023-07-03T14:57:48.198Z,10.55
2023-07-03T15:00:17.544Z,13.77
2023-07-03T15:02:49.561Z,9.63
2023-07-03T15:05:20.846Z,8.02
2023-07-03T15:07:53.252Z,8.77
2023-07-03T15:10:22.470Z,9.93
2023-07-03T15:12:50.775Z,8.55
2023-07-03T15:15:19.629Z,12.88
2023-07-03T15:17:52.881Z,9.52
2023-07-03T15:20:21.826Z,6.53
2023-07-03T15:22:55.104Z,10.02
2023-07-03T15:25:23.958Z,10.23
2023-07-03T15:27:52.393Z,10.15
2023-07-03T15:30:21.007Z,11.57
2023-07-03T15:32:53.675Z,7.80
2023-07-03T15:35:22.799Z,9.07
2023-07-03T15:37:51.930Z,11.10
2023-07-03T15:40:21.940Z,8.70
2023-07-03T15:42:50.457Z,12.32
2023-07-03T15:45:22.981Z,9.82
2023-07-03T15:47:51.492Z,7.47
2023-07-03T15:50:20.148Z,7.68
2023-07-03T15:52:48.492Z,8.32
2023-07-03T15:55:19.019Z,8.10
2023-07-03T15:57:48.706Z,10.85
2023-07-03T16:00:18.739Z,8.38
2023-07-03T16:02:47.351Z,9.43
2023-07-03T16:05:16.784Z,6.00
2023-07-03T16:07:44.950Z,8.13
2023-07-03T16:10:13.692Z,8.95
2023-07-03T16:12:41.971Z,9.05
2023-07-03T16:15:12.609Z,8.98
2023-07-03T16:17:41.074Z,8.95
2023-07-03T16:20:13.087Z,8.40
2023-07-03T16:22:41.324Z,7.95
2023-07-03T16:25:10.820Z,7.05
2023-07-03T16:27:40.142Z,7.25
2023-07-03T16:30:11.263Z,7.00
2023-07-03T16:32:39.725Z,6.82
2023-07-03T16:35:08.889Z,7.85
2023-07-03T16:37:37.196Z,12.02
2023-07-03T16:40:06.760Z,7.22
2023-07-03T16:42:35.256Z,8.80
2023-07-03T16:45:04.180Z,8.20
2023-07-03T16:47:34.088Z,10.43
2023-07-03T16:50:02.694Z,8.63
2023-07-03T16:52:31.168Z,8.02
2023-07-03T16:54:59.968Z,8.65
2023-07-03T16:57:28.537Z,6.63
2023-07-03T16:59:59.335Z,9.65
2023-07-03T17:02:28.103Z,4.82
2023-07-03T17:04:58.424Z,6.28
2023-07-03T17:07:27.689Z,5.63
2023-07-03T17:09:56.131Z,6.75
2023-07-03T17:12:24.707Z,5.57
2023-07-03T17:14:53.433Z,9.13
2023-07-03T17:17:21.804Z,5.85
2023-07-03T17:19:50.417Z,6.97
2023-07-03T17:22:21.020Z,4.80
2023-07-03T17:24:50.819Z,7.97
2023-07-03T17:27:19.114Z,10.85
2023-07-03T17:29:47.652Z,6.55
2023-07-03T17:32:16.481Z,5.63
2023-07-03T17:34:45.434Z,6.88
2023-07-03T17:37:14.445Z,7.22
2023-07-03T17:39:46.267Z,6.45
2023-07-03T17:42:14.665Z,8.35
2023-07-03T17:44:43.365Z,6.95
2023-07-03T17:47:12.436Z,6.60
2023-07-03T17:49:41.028Z,7.38
2023-07-03T17:52:09.442Z,8.27
2023-07-03T17:54:38.498Z,7.40
2023-07-03T17:57:08.445Z,7.05
2023-07-03T17:59:37.099Z,9.00
2023-07-03T18:02:06.900Z,7.05
2023-07-03T18:04:35.522Z,4.90
2023-07-03T18:07:04.036Z,8.32
2023-07-03T18:09:32.973Z,7.90
2023-07-03T18:12:01.915Z,9.70
2023-07-03T18:14:32.403Z,7.85
2023-07-03T18:17:01.040Z,8.65
2023-07-03T18:19:29.617Z,7.47
2023-07-03T18:21:57.970Z,10.57
2023-07-03T18:24:26.590Z,11.35
2023-07-03T18:26:55.007Z,7.15
2023-07-03T18:29:24.005Z,7.20
2023-07-03T18:31:53.851Z,6.45
2023-07-03T18:34:22.483Z,7.88
2023-07-03T18:36:50.977Z,9.80
2023-07-03T18:39:19.549Z,10.35
2023-07-03T18:41:49.368Z,8.35
2023-07-03T18:44:18.101Z,8.73
2023-07-03T18:46:47.161Z,6.80
2023-07-03T18:49:17.244Z,6.97
2023-07-03T18:51:45.594Z,11.23
2023-07-03T18:54:14.263Z,10.95
2023-07-03T18:56:42.677Z,10.40
2023-07-03T18:59:11.312Z,8.02
2023-07-03T19:01:41.985Z,7.82
2023-07-03T19:04:12.581Z,7.38
2023-07-03T19:06:43.188Z,6.95
2023-07-03T19:09:12.044Z,6.03
2023-07-03T19:11:43.890Z,8.75
2023-07-03T19:14:12.564Z,7.43
2023-07-03T19:16:41.027Z,6.55
2023-07-03T19:19:09.951Z,11.38
2023-07-03T19:21:38.370Z,11.27
2023-07-03T19:24:08.531Z,13.48
2023-07-03T19:26:37.563Z,8.13
2023-07-03T19:29:06.608Z,8.90
2023-07-03T19:31:34.931Z,7.47
2023-07-03T19:34:05.112Z,9.60
2023-07-03T19:36:33.586Z,10.77
2023-07-03T19:39:02.324Z,12.20
2023-07-03T19:41:32.224Z,8.60
2023-07-03T19:44:01.003Z,10.43
2023-07-03T19:46:29.199Z,10.88
2023-07-03T19:48:57.868Z,12.50
2023-07-03T19:51:26.229Z,11.13
2023-07-03T19:53:55.051Z,9.23
2023-07-03T19:56:23.651Z,14.57
2023-07-03T19:58:53.789Z,11.30
2023-07-03T20:01:22.395Z,11.32
2023-07-03T20:03:51.413Z,11.85
2023-07-03T20:06:22.566Z,11.63
2023-07-03T20:08:54.905Z,8.85
2023-07-03T20:11:25.894Z,11.52
2023-07-03T20:13:55.991Z,12.75
2023-07-03T20:16:24.581Z,12.35
2023-07-03T20:18:55.558Z,10.18
2023-07-03T20:21:24.573Z,10.18
2023-07-03T20:23:57.776Z,8.43
2023-07-03T20:26:26.661Z,6.78
2023-07-03T20:28:56.927Z,9.05
2023-07-03T20:31:25.952Z,9.30
2023-07-03T20:33:54.606Z,11.15
2023-07-03T20:36:22.957Z,9.73
2023-07-03T20:38:51.560Z,8.45
2023-07-03T20:41:21.429Z,7.88
2023-07-03T20:43:50.216Z,10.95
2023-07-03T20:46:22.088Z,11.23
2023-07-03T20:48:55.498Z,10.68
2023-07-03T20:51:27.693Z,10.88
2023-07-03T20:54:04.508Z,11.73
2023-07-03T20:56:38.365Z,8.80
2023-07-03T20:59:08.160Z,12.38
2023-07-03T21:01:40.193Z,11.40
2023-07-03T21:04:09.432Z,9.55
2023-07-03T21:06:39.277Z,9.98
2023-07-03T21:09:08.418Z,16.42
2023-07-03T21:11:40.371Z,11.02
2023-07-03T21:14:10.970Z,8.82
2023-07-03T21:16:41.160Z,7.53
2023-07-03T21:19:11.047Z,10.25
2023-07-03T21:21:40.043Z,10.38
2023-07-03T21:24:11.789Z,11.38
2023-07-03T21:26:40.643Z,8.80
2023-07-03T21:29:09.455Z,7.40
2023-07-03T21:31:39.876Z,10.50
2023-07-03T21:34:08.656Z,10.70
2023-07-03T21:36:37.128Z,11.07
2023-07-03T21:39:06.272Z,8.80
2023-07-03T21:41:36.275Z,11.68
2023-07-03T21:44:12.267Z,11.05
2023-07-03T21:46:42.831Z,12.07
2023-07-03T21:49:13.667Z,10.48
2023-07-03T21:51:42.276Z,6.25
2023-07-03T21:54:11.017Z,7.05
2023-07-03T21:56:41.525Z,9.15
2023-07-03T21:59:11.908Z,7.10
2023-07-03T22:01:42.995Z,7.82
2023-07-03T22:04:12.891Z,15.75
2023-07-03T22:06:41.529Z,11.85
2023-07-03T22:09:10.191Z,9.07
2023-07-03T22:11:38.667Z,13.13
2023-07-03T22:14:07.412Z,7.22
2023-07-03T22:16:35.917Z,10.38
2023-07-03T22:19:06.175Z,11.15
2023-07-03T22:21:35.009Z,8.63
2023-07-03T22:24:03.651Z,8.20
2023-07-03T22:26:31.836Z,6.53
2023-07-03T22:29:00.611Z,7.40
2023-07-03T22:31:29.667Z,8.95
2023-07-03T22:33:58.205Z,8.82
2023-07-03T22:36:28.023Z,11.02
2023-07-03T22:38:56.755Z,8.70
2023-07-03T22:41:25.182Z,8.25
2023-07-03T22:43:53.928Z,13.45
2023-07-03T22:46:23.431Z,5.80
2023-07-03T22:48:54.900Z,10.25
2023-07-03T22:51:23.282Z,12.52
2023-07-03T22:53:53.241Z,9.77
2023-07-03T22:56:21.680Z,8.25
2023-07-03T22:58:50.990Z,7.85
2023-07-03T23:01:19.591Z,12.63
2023-07-03T23:03:48.316Z,10.57
2023-07-03T23:06:16.786Z,8.80
2023-07-03T23:08:45.376Z,9.35
2023-07-03T23:11:15.148Z,8.40
2023-07-03T23:13:43.870Z,12.85
2023-07-03T23:16:12.445Z,8.80
2023-07-03T23:18:42.598Z,8.50
2023-07-03T23:21:14.234Z,10.43
2023-07-03T23:23:43.767Z,9.35
2023-07-03T23:26:16.163Z,9.30
2023-07-03T23:28:46.641Z,6.72
2023-07-03T23:31:17.469Z,7.38
2023-07-03T23:33:49.311Z,10.35
2023-07-03T23:36:21.514Z,9.02
2023-07-03T23:38:51.516Z,10.77
2023-07-03T23:41:22.100Z,7.88
2023-07-03T23:43:51.127Z,7.82
2023-07-03T23:46:19.620Z,15.10
2023-07-03T23:48:48.921Z,7.55
2023-07-03T23:51:17.926Z,8.02
2023-07-03T23:53:48.541Z,8.25
2023-07-03T23:56:19.474Z,11.50
2023-07-03T23:58:50.317Z,10.10
